EWG5DR EDDH-LIPZ
Flight info
| Callsign | EWG5DR |
|---|---|
| Flight time | N/A |
| Altitude | 38000 |
| Route | IDEKO7G/33 IDEKO N850 XAROL DCT BOMBI DCT GIGET DCT ABUKA DCT TEDGO DCT BATUB M738 ADOSA L612 ALBET |
| Aircraft | A319/M-SDE3FGHIRWY/LB1 |
Departure
| Time | 2026-05-06 15:30 |
|---|---|
| Airport | Hamburg Helmut Schmidt Airport (EDDH) |
Arrival
| Time | N/A |
|---|---|
| Airport | Venice Marco Polo Airport (LIPZ) |
| Time | Latitude | Longitude | Altitude | Speed | Heading |
|---|---|---|---|---|---|
| 2026-05-06 14:52 | 53.63073 | 10.00389 | 49 ft | 0 kts | 93° |
| 2026-05-06 15:20 | 53.63074 | 10.00378 | 48 ft | 4 kts | 93° |
| 2026-05-06 15:20 | 53.63075 | 10.00332 | 48 ft | 4 kts | 93° |
| 2026-05-06 15:20 | 53.63077 | 10.00288 | 48 ft | 3 kts | 93° |
| 2026-05-06 15:21 | 53.63079 | 10.00252 | 48 ft | 4 kts | 102° |
| 2026-05-06 15:21 | 53.63088 | 10.00211 | 45 ft | 4 kts | 131° |
| 2026-05-06 15:21 | 53.63105 | 10.00193 | 46 ft | 1 kts | 176° |
| 2026-05-06 15:25 | 53.63099 | 10.00193 | 47 ft | 2 kts | 176° |
| 2026-05-06 15:25 | 53.63069 | 10.00183 | 47 ft | 6 kts | 203° |
| 2026-05-06 15:26 | 53.63025 | 10.00137 | 48 ft | 8 kts | 211° |
| 2026-05-06 15:26 | 53.62969 | 10.00078 | 48 ft | 9 kts | 212° |
| 2026-05-06 15:26 | 53.62920 | 9.99995 | 48 ft | 10 kts | 243° |
| 2026-05-06 15:26 | 53.62898 | 9.99920 | 48 ft | 0 kts | 243° |
| 2026-05-06 15:27 | 53.62891 | 9.99896 | 45 ft | 6 kts | 243° |
| 2026-05-06 15:27 | 53.62863 | 9.99806 | 45 ft | 12 kts | 243° |
| 2026-05-06 15:27 | 53.62879 | 9.99735 | 44 ft | 7 kts | 333° |
| 2026-05-06 15:28 | 53.62880 | 9.99734 | 44 ft | 0 kts | 332° |
| 2026-05-06 15:29 | 53.62889 | 9.99727 | 45 ft | 7 kts | 332° |
| 2026-05-06 15:29 | 53.63107 | 9.99537 | 46 ft | 68 kts | 333° |
| 2026-05-06 15:29 | 53.63714 | 9.99012 | 48 ft | 126 kts | 333° |
| 2026-05-06 15:30 | 53.64603 | 9.98228 | 212 ft | 156 kts | 334° |
| 2026-05-06 15:30 | 53.65555 | 9.97379 | 802 ft | 154 kts | 338° |
| 2026-05-06 15:30 | 53.66515 | 9.96565 | 1438 ft | 154 kts | 339° |
| 2026-05-06 15:30 | 53.67474 | 9.95754 | 2009 ft | 154 kts | 341° |
| 2026-05-06 15:31 | 53.68441 | 9.94935 | 2600 ft | 155 kts | 341° |
| 2026-05-06 15:31 | 53.69408 | 9.94110 | 3223 ft | 157 kts | 341° |
| 2026-05-06 15:31 | 53.70439 | 9.93235 | 3647 ft | 177 kts | 339° |
| 2026-05-06 15:32 | 53.71518 | 9.89037 | 4287 ft | 245 kts | 261° |
| 2026-05-06 15:32 | 53.71063 | 9.86088 | 4782 ft | 271 kts | 252° |
| 2026-05-06 15:32 | 53.70433 | 9.83046 | 5573 ft | 282 kts | 250° |
| 2026-05-06 15:32 | 53.69743 | 9.79924 | 6566 ft | 286 kts | 250° |
| 2026-05-06 15:33 | 53.69051 | 9.76767 | 7540 ft | 289 kts | 250° |
| 2026-05-06 15:33 | 53.68367 | 9.73543 | 8473 ft | 293 kts | 251° |
| 2026-05-06 15:33 | 53.67694 | 9.70266 | 9404 ft | 297 kts | 251° |
| 2026-05-06 15:33 | 53.67028 | 9.66960 | 9767 ft | 297 kts | 251° |
| 2026-05-06 15:34 | 53.66303 | 9.63703 | 10028 ft | 309 kts | 243° |
| 2026-05-06 15:34 | 53.65015 | 9.60648 | 10312 ft | 329 kts | 224° |
| 2026-05-06 15:34 | 53.63146 | 9.58356 | 10915 ft | 334 kts | 205° |
| 2026-05-06 15:34 | 53.60939 | 9.57129 | 11683 ft | 335 kts | 188° |
| 2026-05-06 15:35 | 53.58630 | 9.56639 | 12553 ft | 334 kts | 185° |
| 2026-05-06 15:35 | 53.56308 | 9.56179 | 13355 ft | 335 kts | 185° |
| 2026-05-06 15:35 | 53.53988 | 9.55722 | 14099 ft | 338 kts | 186° |
| 2026-05-06 15:35 | 53.51648 | 9.55260 | 14802 ft | 340 kts | 186° |
| 2026-05-06 15:36 | 53.49317 | 9.54798 | 15490 ft | 343 kts | 187° |
| 2026-05-06 15:36 | 53.46943 | 9.54328 | 16200 ft | 345 kts | 187° |
| 2026-05-06 15:36 | 53.44546 | 9.53856 | 16845 ft | 349 kts | 187° |
| 2026-05-06 15:36 | 53.42119 | 9.53380 | 17516 ft | 352 kts | 187° |
| 2026-05-06 15:37 | 53.39665 | 9.52898 | 18149 ft | 356 kts | 187° |
| 2026-05-06 15:37 | 53.37192 | 9.52415 | 18739 ft | 359 kts | 187° |
| 2026-05-06 15:37 | 53.34722 | 9.51931 | 19301 ft | 362 kts | 187° |
| 2026-05-06 15:37 | 53.32200 | 9.51438 | 19896 ft | 365 kts | 187° |
| 2026-05-06 15:38 | 53.29661 | 9.50942 | 20446 ft | 369 kts | 187° |
| 2026-05-06 15:38 | 53.27103 | 9.50443 | 21006 ft | 372 kts | 187° |
| 2026-05-06 15:38 | 53.24511 | 9.49937 | 21530 ft | 376 kts | 187° |
| 2026-05-06 15:38 | 53.21905 | 9.49429 | 22091 ft | 378 kts | 187° |
| 2026-05-06 15:39 | 53.19275 | 9.48920 | 22652 ft | 381 kts | 187° |
| 2026-05-06 15:39 | 53.16630 | 9.48408 | 23316 ft | 384 kts | 187° |
| 2026-05-06 15:39 | 53.13986 | 9.47893 | 23868 ft | 389 kts | 187° |
| 2026-05-06 15:39 | 53.11277 | 9.47362 | 24403 ft | 394 kts | 186° |
| 2026-05-06 15:40 | 53.08543 | 9.46825 | 24890 ft | 397 kts | 186° |
| 2026-05-06 15:40 | 53.05792 | 9.46287 | 25340 ft | 398 kts | 186° |
| 2026-05-06 15:40 | 53.03027 | 9.45749 | 25808 ft | 399 kts | 186° |
| 2026-05-06 15:40 | 53.00295 | 9.45213 | 26209 ft | 402 kts | 186° |
| 2026-05-06 15:41 | 52.97497 | 9.44659 | 26607 ft | 406 kts | 186° |
| 2026-05-06 15:41 | 52.94682 | 9.44074 | 26973 ft | 409 kts | 187° |
| 2026-05-06 15:41 | 52.91848 | 9.43466 | 27424 ft | 411 kts | 187° |
| 2026-05-06 15:41 | 52.89007 | 9.42849 | 27859 ft | 413 kts | 187° |
| 2026-05-06 15:42 | 52.86142 | 9.42225 | 28264 ft | 416 kts | 188° |
| 2026-05-06 15:42 | 52.83254 | 9.41597 | 28693 ft | 420 kts | 188° |
| 2026-05-06 15:42 | 52.80332 | 9.40966 | 29093 ft | 425 kts | 188° |
| 2026-05-06 15:42 | 52.77428 | 9.40346 | 29551 ft | 427 kts | 187° |
| 2026-05-06 15:43 | 52.74466 | 9.39720 | 30008 ft | 430 kts | 187° |
| 2026-05-06 15:43 | 52.71486 | 9.39098 | 30345 ft | 433 kts | 188° |
| 2026-05-06 15:43 | 52.68497 | 9.38474 | 30684 ft | 434 kts | 188° |
| 2026-05-06 15:43 | 52.65483 | 9.37837 | 31009 ft | 436 kts | 188° |
| 2026-05-06 15:44 | 52.62458 | 9.37186 | 31334 ft | 437 kts | 189° |
| 2026-05-06 15:44 | 52.59437 | 9.36482 | 31728 ft | 437 kts | 190° |
| 2026-05-06 15:44 | 52.56477 | 9.35718 | 32198 ft | 434 kts | 191° |
| 2026-05-06 15:44 | 52.53499 | 9.34905 | 32682 ft | 432 kts | 191° |
| 2026-05-06 15:45 | 52.50535 | 9.34088 | 33178 ft | 430 kts | 191° |
| 2026-05-06 15:45 | 52.47588 | 9.33287 | 33655 ft | 428 kts | 191° |
| 2026-05-06 15:45 | 52.44642 | 9.32502 | 34080 ft | 426 kts | 191° |
| 2026-05-06 15:45 | 52.41753 | 9.31743 | 34434 ft | 425 kts | 191° |
| 2026-05-06 15:46 | 52.38825 | 9.30981 | 34761 ft | 425 kts | 191° |
| 2026-05-06 15:46 | 52.35906 | 9.30225 | 35108 ft | 424 kts | 191° |
| 2026-05-06 15:46 | 52.32991 | 9.29470 | 35431 ft | 423 kts | 191° |
| 2026-05-06 15:46 | 52.30072 | 9.28711 | 35737 ft | 423 kts | 191° |
| 2026-05-06 15:47 | 52.27156 | 9.27950 | 36023 ft | 423 kts | 191° |
| 2026-05-06 15:47 | 52.24282 | 9.27202 | 36305 ft | 423 kts | 191° |
| 2026-05-06 15:47 | 52.21365 | 9.26489 | 36583 ft | 423 kts | 190° |
| 2026-05-06 15:47 | 52.18428 | 9.25892 | 36861 ft | 424 kts | 188° |
| 2026-05-06 15:48 | 52.15490 | 9.25377 | 37122 ft | 424 kts | 188° |
| 2026-05-06 15:48 | 52.12549 | 9.24896 | 37394 ft | 424 kts | 188° |
| 2026-05-06 15:48 | 52.09644 | 9.24426 | 37651 ft | 423 kts | 188° |
| 2026-05-06 15:48 | 52.06712 | 9.23937 | 37807 ft | 424 kts | 188° |
| 2026-05-06 15:49 | 52.00868 | 9.22710 | 37824 ft | 423 kts | 191° |
| 2026-05-06 15:49 | 51.95060 | 9.21103 | 37824 ft | 422 kts | 192° |
| 2026-05-06 15:50 | 51.89301 | 9.19478 | 37822 ft | 422 kts | 192° |
| 2026-05-06 15:50 | 51.83475 | 9.18052 | 37813 ft | 423 kts | 189° |
| 2026-05-06 15:51 | 51.77638 | 9.16867 | 37814 ft | 423 kts | 189° |
| 2026-05-06 15:51 | 51.71788 | 9.15675 | 37817 ft | 423 kts | 189° |
| 2026-05-06 15:52 | 51.65946 | 9.14408 | 37810 ft | 422 kts | 189° |
| 2026-05-06 15:52 | 51.60168 | 9.13152 | 37822 ft | 422 kts | 189° |
| 2026-05-06 15:53 | 51.54339 | 9.11897 | 37823 ft | 421 kts | 189° |
| 2026-05-06 15:53 | 51.48539 | 9.10553 | 37821 ft | 420 kts | 192° |
| 2026-05-06 15:54 | 51.42855 | 9.08665 | 37809 ft | 419 kts | 194° |
| 2026-05-06 15:54 | 51.37168 | 9.06571 | 37813 ft | 419 kts | 194° |
| 2026-05-06 15:55 | 51.31475 | 9.04572 | 37812 ft | 418 kts | 192° |
| 2026-05-06 15:55 | 51.25703 | 9.03150 | 37810 ft | 419 kts | 188° |
| 2026-05-06 15:56 | 51.19940 | 9.02166 | 37800 ft | 419 kts | 188° |
| 2026-05-06 15:56 | 51.14129 | 9.01151 | 37793 ft | 420 kts | 188° |
| 2026-05-06 15:57 | 51.08321 | 9.00002 | 37788 ft | 420 kts | 189° |
| 2026-05-06 15:57 | 51.03489 | 8.99024 | 37789 ft | 421 kts | 189° |
| 2026-05-06 15:58 | 50.96744 | 8.97669 | 37779 ft | 420 kts | 189° |
| 2026-05-06 15:58 | 50.91913 | 8.96715 | 37778 ft | 420 kts | 189° |
| 2026-05-06 15:59 | 50.86109 | 8.95574 | 37776 ft | 420 kts | 189° |
| 2026-05-06 15:59 | 50.80297 | 8.94443 | 37769 ft | 420 kts | 189° |
| 2026-05-06 16:00 | 50.74527 | 8.93319 | 37770 ft | 419 kts | 189° |
| 2026-05-06 16:00 | 50.68731 | 8.92182 | 37771 ft | 419 kts | 189° |
| 2026-05-06 16:01 | 50.62929 | 8.91047 | 37771 ft | 419 kts | 189° |
| 2026-05-06 16:01 | 50.57131 | 8.89930 | 37769 ft | 419 kts | 189° |
| 2026-05-06 16:02 | 50.51375 | 8.88819 | 37768 ft | 419 kts | 188° |
| 2026-05-06 16:02 | 50.45576 | 8.87682 | 37777 ft | 418 kts | 188° |
| 2026-05-06 16:03 | 50.39828 | 8.86570 | 37786 ft | 418 kts | 188° |
| 2026-05-06 16:03 | 50.34052 | 8.85461 | 37788 ft | 417 kts | 188° |
| 2026-05-06 16:04 | 50.28273 | 8.84346 | 37774 ft | 417 kts | 188° |
| 2026-05-06 16:04 | 50.22539 | 8.83244 | 37775 ft | 418 kts | 188° |
| 2026-05-06 16:05 | 50.16749 | 8.82140 | 37781 ft | 418 kts | 188° |
| 2026-05-06 16:05 | 50.10960 | 8.81049 | 37786 ft | 419 kts | 188° |
| 2026-05-06 16:06 | 50.05195 | 8.79950 | 37780 ft | 419 kts | 188° |
| 2026-05-06 16:06 | 49.99397 | 8.78760 | 37784 ft | 420 kts | 189° |
| 2026-05-06 16:07 | 49.93627 | 8.77533 | 37785 ft | 420 kts | 189° |
| 2026-05-06 16:07 | 49.87833 | 8.76320 | 37774 ft | 420 kts | 189° |
| 2026-05-06 16:08 | 49.82039 | 8.75126 | 37772 ft | 420 kts | 189° |
| 2026-05-06 16:08 | 49.76236 | 8.73932 | 37779 ft | 421 kts | 189° |
| 2026-05-06 16:09 | 49.70444 | 8.72741 | 37786 ft | 421 kts | 189° |
| 2026-05-06 16:09 | 49.64628 | 8.71553 | 37790 ft | 421 kts | 189° |
| 2026-05-06 16:10 | 49.58818 | 8.70392 | 37787 ft | 421 kts | 189° |
| 2026-05-06 16:10 | 49.53005 | 8.69234 | 37792 ft | 421 kts | 189° |
| 2026-05-06 16:11 | 49.47190 | 8.68798 | 37796 ft | 424 kts | 175° |
| 2026-05-06 16:11 | 49.41516 | 8.71404 | 37787 ft | 430 kts | 158° |
| 2026-05-06 16:12 | 49.36056 | 8.75229 | 37785 ft | 431 kts | 158° |
| 2026-05-06 16:12 | 49.30605 | 8.78998 | 37786 ft | 432 kts | 159° |
| 2026-05-06 16:13 | 49.25103 | 8.82800 | 37789 ft | 432 kts | 159° |
| 2026-05-06 16:13 | 49.19650 | 8.86566 | 37791 ft | 433 kts | 159° |
| 2026-05-06 16:14 | 49.14149 | 8.90360 | 37791 ft | 432 kts | 159° |
| 2026-05-06 16:14 | 49.08667 | 8.94137 | 37808 ft | 432 kts | 159° |
| 2026-05-06 16:15 | 49.03208 | 8.97878 | 37815 ft | 431 kts | 159° |
| 2026-05-06 16:15 | 48.97728 | 9.01613 | 37821 ft | 431 kts | 159° |
| 2026-05-06 16:16 | 48.92239 | 9.05343 | 37829 ft | 431 kts | 159° |
| 2026-05-06 16:16 | 48.86812 | 9.09037 | 37841 ft | 430 kts | 159° |
| 2026-05-06 16:17 | 48.81338 | 9.12767 | 37846 ft | 430 kts | 159° |
| 2026-05-06 16:17 | 48.75868 | 9.16466 | 37842 ft | 429 kts | 159° |
| 2026-05-06 16:18 | 48.70441 | 9.20126 | 37824 ft | 429 kts | 159° |
| 2026-05-06 16:18 | 48.64985 | 9.23806 | 37840 ft | 428 kts | 159° |
| 2026-05-06 16:19 | 48.59481 | 9.27148 | 37847 ft | 425 kts | 164° |
| 2026-05-06 16:19 | 48.53910 | 9.30003 | 37850 ft | 425 kts | 164° |
| 2026-05-06 16:20 | 48.48306 | 9.32872 | 37851 ft | 425 kts | 164° |
| 2026-05-06 16:20 | 48.42736 | 9.35716 | 37844 ft | 424 kts | 164° |
| 2026-05-06 16:21 | 48.37146 | 9.38564 | 37839 ft | 423 kts | 164° |
| 2026-05-06 16:21 | 48.31546 | 9.41419 | 37845 ft | 424 kts | 164° |
| 2026-05-06 16:22 | 48.25986 | 9.44254 | 37842 ft | 424 kts | 164° |
| 2026-05-06 16:22 | 48.20388 | 9.47101 | 37803 ft | 425 kts | 165° |
| 2026-05-06 16:23 | 48.14770 | 9.49931 | 37818 ft | 426 kts | 165° |
| 2026-05-06 16:23 | 48.09141 | 9.52758 | 37833 ft | 426 kts | 165° |
| 2026-05-06 16:24 | 48.03549 | 9.55615 | 37830 ft | 428 kts | 161° |
| 2026-05-06 16:24 | 47.98384 | 9.60208 | 37830 ft | 436 kts | 148° |
| 2026-05-06 16:25 | 47.93458 | 9.65550 | 37829 ft | 437 kts | 148° |
| 2026-05-06 16:25 | 47.88558 | 9.70831 | 37839 ft | 437 kts | 148° |
| 2026-05-06 16:26 | 47.83622 | 9.76135 | 37815 ft | 438 kts | 148° |
| 2026-05-06 16:26 | 47.78680 | 9.81451 | 37866 ft | 437 kts | 149° |
| 2026-05-06 16:27 | 47.73779 | 9.86701 | 37882 ft | 436 kts | 149° |
| 2026-05-06 16:27 | 47.68847 | 9.91965 | 37890 ft | 435 kts | 149° |
| 2026-05-06 16:28 | 47.63927 | 9.97210 | 37894 ft | 435 kts | 149° |
| 2026-05-06 16:28 | 47.59018 | 10.02434 | 37895 ft | 434 kts | 149° |
| 2026-05-06 16:29 | 47.54134 | 10.07618 | 37853 ft | 434 kts | 149° |
| 2026-05-06 16:29 | 47.49217 | 10.12808 | 37868 ft | 434 kts | 149° |
| 2026-05-06 16:30 | 47.45092 | 10.17167 | 37886 ft | 434 kts | 149° |
| 2026-05-06 16:30 | 47.39249 | 10.22925 | 37887 ft | 432 kts | 153° |
| 2026-05-06 16:31 | 47.34131 | 10.27465 | 37889 ft | 431 kts | 154° |
| 2026-05-06 16:31 | 47.28978 | 10.32001 | 37867 ft | 431 kts | 154° |
| 2026-05-06 16:32 | 47.23880 | 10.36558 | 37866 ft | 431 kts | 154° |
| 2026-05-06 16:32 | 47.18750 | 10.41186 | 37838 ft | 431 kts | 153° |
| 2026-05-06 16:33 | 47.13623 | 10.45802 | 37838 ft | 431 kts | 154° |
| 2026-05-06 16:34 | 47.05931 | 10.52503 | 37847 ft | 427 kts | 161° |
| 2026-05-06 16:34 | 47.00356 | 10.55288 | 37839 ft | 421 kts | 168° |
| 2026-05-06 16:35 | 46.94750 | 10.57817 | 37850 ft | 421 kts | 167° |
| 2026-05-06 16:35 | 46.89182 | 10.60339 | 37848 ft | 421 kts | 168° |
| 2026-05-06 16:36 | 46.83573 | 10.62865 | 37844 ft | 421 kts | 168° |
| 2026-05-06 16:36 | 46.77955 | 10.65395 | 37841 ft | 422 kts | 168° |
| 2026-05-06 16:37 | 46.72366 | 10.67896 | 37851 ft | 422 kts | 169° |
| 2026-05-06 16:37 | 46.69530 | 10.69017 | 37745 ft | 425 kts | 172° |
| 2026-05-06 16:37 | 46.66602 | 10.70006 | 37467 ft | 435 kts | 173° |
| 2026-05-06 16:37 | 46.63632 | 10.70919 | 37201 ft | 435 kts | 174° |
| 2026-05-06 16:38 | 46.60706 | 10.71801 | 36936 ft | 433 kts | 174° |
| 2026-05-06 16:38 | 46.57756 | 10.72704 | 36665 ft | 431 kts | 174° |
| 2026-05-06 16:38 | 46.54833 | 10.73621 | 36393 ft | 427 kts | 174° |
| 2026-05-06 16:38 | 46.51930 | 10.74552 | 35830 ft | 426 kts | 174° |